createdAt,value
2023-05-14T00:00:22.421Z,4.63
2023-05-14T00:02:49.107Z,4.60
2023-05-14T00:05:15.770Z,5.05
2023-05-14T00:07:42.219Z,4.47
2023-05-14T00:10:08.981Z,4.90
2023-05-14T00:12:35.455Z,4.75
2023-05-14T00:15:02.393Z,4.55
2023-05-14T00:17:28.870Z,5.00
2023-05-14T00:19:55.873Z,5.15
2023-05-14T00:22:22.308Z,4.35
2023-05-14T00:24:48.778Z,5.18
2023-05-14T00:27:15.220Z,4.85
2023-05-14T00:29:41.624Z,4.82
2023-05-14T00:32:08.247Z,4.65
2023-05-14T00:34:35.008Z,4.78
2023-05-14T00:37:01.848Z,5.05
2023-05-14T00:39:28.267Z,4.75
2023-05-14T00:41:54.741Z,4.50
2023-05-14T00:44:21.172Z,5.00
2023-05-14T00:46:47.716Z,4.70
2023-05-14T00:49:14.799Z,5.38
2023-05-14T00:51:42.148Z,4.78
2023-05-14T00:54:09.240Z,4.50
2023-05-14T00:56:36.013Z,4.72
2023-05-14T00:59:02.608Z,5.22
2023-05-14T01:01:29.141Z,4.75
2023-05-14T01:03:57.867Z,4.55
2023-05-14T01:06:33.931Z,4.60
2023-05-14T01:09:28.187Z,4.95
2023-05-14T01:12:02.981Z,4.57
2023-05-14T01:14:36.889Z,4.45
2023-05-14T01:17:04.915Z,4.53
2023-05-14T01:19:41.805Z,4.60
2023-05-14T01:22:08.471Z,5.00
2023-05-14T01:24:34.970Z,5.00
2023-05-14T01:27:15.737Z,4.80
2023-05-14T01:29:49.620Z,4.95
2023-05-14T01:32:17.742Z,4.88
2023-05-14T01:34:47.202Z,5.05
2023-05-14T01:37:15.428Z,4.60
2023-05-14T01:39:42.537Z,4.78
2023-05-14T01:42:10.187Z,4.70
2023-05-14T01:44:36.638Z,4.57
2023-05-14T01:47:03.539Z,5.20
2023-05-14T01:49:30.015Z,5.30
2023-05-14T01:51:56.471Z,5.18
2023-05-14T01:54:23.148Z,5.32
2023-05-14T01:56:49.912Z,4.53
2023-05-14T01:59:16.959Z,5.30
2023-05-14T02:01:43.426Z,5.00
2023-05-14T02:04:10.250Z,4.75
2023-05-14T02:06:36.793Z,4.70
2023-05-14T02:09:04.826Z,4.80
2023-05-14T02:11:31.401Z,4.80
2023-05-14T02:13:57.882Z,5.10
2023-05-14T02:16:24.465Z,5.03
2023-05-14T02:18:51.510Z,5.03
2023-05-14T02:21:17.915Z,5.32
2023-05-14T02:23:44.332Z,4.90
2023-05-14T02:26:11.446Z,5.43
2023-05-14T02:28:38.056Z,5.03
2023-05-14T02:31:04.594Z,5.45
2023-05-14T02:33:31.194Z,5.30
2023-05-14T02:35:58.432Z,5.72
2023-05-14T02:38:26.347Z,5.60
2023-05-14T02:40:52.925Z,4.63
2023-05-14T02:43:19.422Z,5.32
2023-05-14T02:45:45.839Z,5.20
2023-05-14T02:48:12.396Z,4.85
2023-05-14T02:50:38.848Z,5.43
2023-05-14T02:53:05.382Z,5.32
2023-05-14T02:55:31.817Z,5.22
2023-05-14T02:57:58.428Z,5.50
2023-05-14T03:00:26.138Z,5.55
2023-05-14T03:02:53.163Z,5.00
2023-05-14T03:05:20.606Z,5.25
2023-05-14T03:07:46.992Z,5.00
2023-05-14T03:10:13.433Z,5.47
2023-05-14T03:12:39.893Z,5.32
2023-05-14T03:15:06.741Z,5.32
2023-05-14T03:17:33.648Z,5.50
2023-05-14T03:20:00.628Z,5.43
2023-05-14T03:22:27.143Z,5.20
2023-05-14T03:24:53.679Z,5.68
2023-05-14T03:27:20.715Z,5.43
2023-05-14T03:29:47.135Z,5.22
2023-05-14T03:32:13.604Z,5.57
2023-05-14T03:34:40.225Z,5.72
2023-05-14T03:37:07.015Z,5.28
2023-05-14T03:39:33.578Z,5.78
2023-05-14T03:42:00.113Z,5.55
2023-05-14T03:44:26.619Z,5.72
2023-05-14T03:46:53.262Z,5.93
2023-05-14T03:49:20.220Z,5.90
2023-05-14T03:51:46.641Z,5.72
2023-05-14T03:54:13.261Z,5.50
2023-05-14T03:56:39.705Z,6.60
2023-05-14T03:59:06.280Z,5.93
2023-05-14T04:01:32.794Z,5.35
2023-05-14T04:03:59.340Z,5.60
2023-05-14T04:06:26.402Z,6.10
2023-05-14T04:08:52.797Z,5.85
2023-05-14T04:11:19.301Z,5.63
2023-05-14T04:13:45.742Z,5.93
2023-05-14T04:16:12.205Z,5.15
2023-05-14T04:18:38.718Z,6.28
2023-05-14T04:21:05.231Z,5.80
2023-05-14T04:23:34.745Z,6.18
2023-05-14T04:26:01.185Z,5.38
2023-05-14T04:28:27.674Z,6.15
2023-05-14T04:30:54.228Z,5.60
2023-05-14T04:33:20.692Z,5.68
2023-05-14T04:35:47.180Z,5.55
2023-05-14T04:38:14.426Z,5.32
2023-05-14T04:40:44.190Z,5.88
2023-05-14T04:43:10.757Z,5.90
2023-05-14T04:45:37.252Z,5.70
2023-05-14T04:48:04.925Z,5.97
2023-05-14T04:50:31.483Z,6.13
2023-05-14T04:52:57.901Z,5.63
2023-05-14T04:55:24.412Z,5.72
2023-05-14T04:57:50.899Z,5.53
2023-05-14T05:00:17.899Z,6.20
2023-05-14T05:02:44.415Z,5.88
2023-05-14T05:05:10.881Z,5.55
2023-05-14T05:07:37.354Z,5.15
2023-05-14T05:10:04.292Z,5.90
2023-05-14T05:12:32.505Z,6.07
2023-05-14T05:14:59.226Z,5.80
2023-05-14T05:17:25.991Z,6.07
2023-05-14T05:19:52.751Z,5.95
2023-05-14T05:22:20.298Z,5.90
2023-05-14T05:24:47.989Z,6.20
2023-05-14T05:27:15.684Z,6.22
2023-05-14T05:29:42.096Z,6.32
2023-05-14T05:32:08.505Z,6.03
2023-05-14T05:34:35.887Z,6.13
2023-05-14T05:37:02.491Z,5.68
2023-05-14T05:39:34.593Z,5.90
2023-05-14T05:42:04.851Z,6.00
2023-05-14T05:44:31.432Z,5.97
2023-05-14T05:46:58.125Z,5.78
2023-05-14T05:49:24.682Z,5.63
2023-05-14T05:51:51.836Z,5.85
2023-05-14T05:54:18.586Z,5.82
2023-05-14T05:56:44.977Z,5.90
2023-05-14T05:59:11.425Z,5.78
2023-05-14T06:01:38.081Z,5.75
2023-05-14T06:04:06.234Z,5.63
2023-05-14T06:06:33.011Z,5.70
2023-05-14T06:11:49.077Z,5.28
2023-05-14T06:14:15.516Z,6.00
2023-05-14T06:16:41.983Z,6.00
2023-05-14T06:19:08.498Z,5.78
2023-05-14T06:21:35.224Z,6.28
2023-05-14T06:24:01.652Z,6.05
2023-05-14T06:26:28.058Z,6.00
2023-05-14T06:28:54.618Z,5.88
2023-05-14T06:31:21.064Z,5.90
2023-05-14T06:33:47.495Z,5.97
2023-05-14T06:36:13.905Z,6.78
2023-05-14T06:38:40.400Z,6.10
2023-05-14T06:41:06.882Z,6.20
2023-05-14T06:43:33.328Z,6.07
2023-05-14T06:46:00.180Z,6.07
2023-05-14T06:48:27.886Z,5.53
2023-05-14T06:50:54.464Z,5.60
2023-05-14T06:53:20.851Z,5.88
2023-05-14T06:55:48.159Z,5.70
2023-05-14T06:58:14.601Z,5.88
2023-05-14T07:00:41.165Z,5.47
2023-05-14T07:03:07.649Z,5.10
2023-05-14T07:05:34.105Z,5.32
2023-05-14T07:08:00.605Z,5.78
2023-05-14T07:10:27.165Z,5.03
2023-05-14T07:12:53.627Z,5.38
2023-05-14T07:15:20.484Z,5.30
2023-05-14T07:17:47.009Z,5.25
2023-05-14T07:20:13.480Z,4.82
2023-05-14T07:22:39.915Z,4.93
2023-05-14T07:25:06.547Z,4.57
2023-05-14T07:27:32.981Z,4.35
2023-05-14T07:29:59.401Z,4.70
2023-05-14T07:32:25.954Z,4.80
2023-05-14T07:34:52.422Z,4.72
2023-05-14T07:37:18.944Z,4.80
2023-05-14T07:39:45.529Z,4.88
2023-05-14T07:42:19.381Z,4.22
2023-05-14T07:44:51.918Z,4.63
2023-05-14T07:47:18.445Z,4.22
2023-05-14T07:49:44.974Z,4.03
2023-05-14T07:52:11.429Z,4.35
2023-05-14T07:54:37.914Z,4.43
2023-05-14T07:57:04.640Z,3.95
2023-05-14T07:59:31.230Z,4.20
2023-05-14T08:01:57.797Z,4.47
2023-05-14T08:04:24.366Z,4.32
2023-05-14T08:06:51.273Z,4.20
2023-05-14T08:09:17.755Z,4.10
2023-05-14T08:11:44.244Z,4.13
2023-05-14T08:14:10.674Z,4.40
2023-05-14T08:16:37.164Z,4.32
2023-05-14T08:19:03.616Z,4.22
2023-05-14T08:21:30.165Z,4.93
2023-05-14T08:23:56.548Z,4.20
2023-05-14T08:26:23.019Z,4.20
2023-05-14T08:28:49.454Z,4.30
2023-05-14T08:31:16.076Z,4.35
2023-05-14T08:33:42.494Z,4.22
2023-05-14T08:36:09.222Z,4.28
2023-05-14T08:38:35.657Z,4.55
2023-05-14T08:41:05.444Z,4.53
2023-05-14T08:44:09.261Z,4.55
2023-05-14T08:46:38.142Z,4.38
2023-05-14T08:49:36.710Z,4.15
2023-05-14T08:52:03.736Z,4.25
2023-05-14T08:54:32.421Z,4.60
2023-05-14T08:56:59.527Z,4.40
2023-05-14T08:59:26.338Z,4.70
2023-05-14T09:01:54.729Z,3.78
2023-05-14T09:04:23.329Z,4.40
2023-05-14T09:06:51.745Z,4.18
2023-05-14T09:09:19.021Z,4.50
2023-05-14T09:11:52.753Z,4.40
2023-05-14T09:14:19.522Z,4.30
2023-05-14T09:16:48.324Z,4.45
2023-05-14T09:19:16.011Z,4.15
2023-05-14T09:21:45.243Z,3.80
2023-05-14T09:24:23.026Z,4.43
2023-05-14T09:26:58.743Z,4.18
2023-05-14T09:29:26.402Z,4.13
2023-05-14T09:31:54.676Z,4.13
2023-05-14T09:34:29.287Z,3.80
2023-05-14T09:37:03.315Z,3.90
2023-05-14T09:39:30.766Z,3.80
2023-05-14T09:41:57.657Z,4.10
2023-05-14T09:44:25.015Z,3.83
2023-05-14T09:46:52.524Z,3.70
2023-05-14T09:49:19.496Z,3.40
2023-05-14T09:51:46.298Z,3.40
2023-05-14T09:54:12.783Z,3.30
2023-05-14T09:56:42.318Z,3.75
2023-05-14T09:59:08.773Z,3.40
2023-05-14T10:01:36.461Z,3.40
2023-05-14T10:04:06.291Z,3.78
2023-05-14T10:06:40.167Z,3.50
2023-05-14T10:09:13.752Z,3.72
2023-05-14T10:11:44.191Z,3.63
2023-05-14T10:14:18.815Z,3.63
2023-05-14T10:16:51.395Z,3.17
2023-05-14T10:19:22.859Z,3.10
2023-05-14T10:21:55.659Z,3.80
2023-05-14T10:24:23.440Z,3.45
2023-05-14T10:26:50.054Z,3.45
2023-05-14T10:29:16.487Z,4.05
2023-05-14T10:31:55.583Z,3.95
2023-05-14T10:34:32.548Z,3.70
2023-05-14T10:37:01.052Z,3.97
2023-05-14T10:39:45.450Z,3.90
2023-05-14T10:44:47.056Z,3.70
2023-05-14T10:47:15.463Z,3.90
2023-05-14T10:49:44.054Z,4.40
2023-05-14T10:52:12.287Z,3.88
2023-05-14T10:54:39.077Z,4.15
2023-05-14T10:57:11.172Z,3.92
2023-05-14T10:59:41.905Z,4.00
2023-05-14T11:02:20.529Z,3.83
2023-05-14T11:04:58.763Z,4.10
2023-05-14T11:07:29.011Z,4.05
2023-05-14T11:10:01.596Z,3.97
2023-05-14T11:12:29.095Z,3.95
2023-05-14T11:15:00.683Z,3.58
2023-05-14T11:17:28.091Z,4.43
2023-05-14T11:19:55.911Z,3.88
2023-05-14T11:22:22.585Z,3.90
2023-05-14T11:24:49.441Z,4.40
2023-05-14T11:27:16.998Z,4.18
2023-05-14T11:29:46.168Z,3.75
2023-05-14T11:32:13.468Z,3.72
2023-05-14T11:34:40.682Z,3.90
2023-05-14T11:37:08.683Z,3.85
2023-05-14T11:39:39.922Z,3.90
2023-05-14T11:42:16.838Z,4.03
2023-05-14T11:44:46.565Z,4.40
2023-05-14T11:47:13.069Z,3.88
2023-05-14T11:49:39.535Z,4.00
2023-05-14T11:52:07.387Z,3.72
2023-05-14T11:54:34.646Z,3.95
2023-05-14T11:57:10.118Z,3.40
2023-05-14T11:59:37.645Z,4.05
2023-05-14T12:02:05.451Z,4.22
2023-05-14T12:04:32.468Z,3.80
2023-05-14T12:07:00.307Z,3.95
2023-05-14T12:09:26.853Z,4.35
2023-05-14T12:11:53.319Z,3.97
2023-05-14T12:14:24.346Z,4.07
2023-05-14T12:16:51.516Z,4.03
2023-05-14T12:19:20.119Z,3.60
2023-05-14T12:21:50.929Z,4.03
2023-05-14T12:24:19.885Z,4.43
2023-05-14T12:26:50.840Z,4.00
2023-05-14T12:29:17.383Z,4.20
2023-05-14T12:31:48.250Z,4.20
2023-05-14T12:34:15.390Z,4.22
2023-05-14T12:36:42.153Z,3.75
2023-05-14T12:39:09.635Z,4.20
2023-05-14T12:41:36.570Z,3.83
2023-05-14T12:44:06.129Z,4.20
2023-05-14T12:46:34.047Z,4.50
2023-05-14T12:49:00.999Z,3.83
2023-05-14T12:51:27.532Z,4.38
2023-05-14T12:53:54.290Z,4.18
2023-05-14T12:56:21.398Z,4.28
2023-05-14T12:58:47.946Z,4.00
2023-05-14T13:01:14.434Z,4.38
2023-05-14T13:03:41.464Z,4.00
2023-05-14T13:06:07.989Z,4.47
2023-05-14T13:08:35.261Z,4.35
2023-05-14T13:11:01.755Z,4.13
2023-05-14T13:13:28.299Z,4.40
2023-05-14T13:15:55.502Z,4.28
2023-05-14T13:18:21.946Z,4.15
2023-05-14T13:20:48.456Z,4.20
2023-05-14T13:23:14.968Z,4.07
2023-05-14T13:25:41.569Z,3.80
2023-05-14T13:28:08.615Z,3.88
2023-05-14T13:30:35.050Z,4.22
2023-05-14T13:33:01.539Z,4.10
2023-05-14T13:35:28.042Z,4.20
2023-05-14T13:37:56.025Z,4.63
2023-05-14T13:40:22.623Z,5.20
2023-05-14T13:42:49.153Z,7.50
2023-05-14T13:45:15.643Z,7.20
2023-05-14T13:47:42.286Z,10.52
2023-05-14T13:50:08.956Z,11.68
2023-05-14T13:52:35.525Z,14.52
2023-05-14T13:55:01.973Z,13.85
2023-05-14T13:57:28.391Z,13.50
2023-05-14T13:59:54.844Z,12.10
2023-05-14T14:02:21.385Z,11.05
2023-05-14T14:04:49.279Z,10.45
2023-05-14T14:07:15.789Z,8.75
2023-05-14T14:09:42.195Z,8.73
2023-05-14T14:12:09.190Z,7.28
2023-05-14T14:14:35.645Z,6.97
2023-05-14T14:17:02.075Z,5.55
2023-05-14T14:19:28.482Z,6.05
2023-05-14T14:21:54.960Z,5.50
2023-05-14T14:24:21.366Z,5.30
2023-05-14T14:26:47.801Z,4.75
2023-05-14T14:29:14.305Z,4.78
2023-05-14T14:31:40.794Z,4.95
2023-05-14T14:34:07.280Z,4.88
2023-05-14T14:36:33.698Z,4.50
2023-05-14T14:39:00.134Z,4.50
2023-05-14T14:41:27.320Z,4.28
2023-05-14T14:43:53.862Z,4.80
2023-05-14T14:46:20.337Z,4.25
2023-05-14T14:48:46.825Z,4.07
2023-05-14T14:51:13.486Z,4.50
2023-05-14T14:53:40.423Z,4.05
2023-05-14T14:56:07.119Z,4.20
2023-05-14T14:58:33.612Z,4.35
2023-05-14T15:01:01.232Z,4.40
2023-05-14T15:03:28.046Z,5.00
2023-05-14T15:05:54.626Z,4.90
2023-05-14T15:08:26.272Z,3.92
2023-05-14T15:10:52.872Z,5.05
2023-05-14T15:13:19.544Z,4.38
2023-05-14T15:15:46.024Z,4.15
2023-05-14T15:18:12.633Z,4.18
2023-05-14T15:20:39.201Z,4.13
2023-05-14T15:23:06.057Z,4.15
2023-05-14T15:25:32.568Z,4.15
2023-05-14T15:27:59.002Z,4.45
2023-05-14T15:30:25.399Z,4.28
2023-05-14T15:32:52.217Z,4.22
2023-05-14T15:35:19.215Z,4.57
2023-05-14T15:37:45.651Z,4.32
2023-05-14T15:40:12.514Z,4.10
2023-05-14T15:42:43.617Z,4.63
2023-05-14T15:45:12.215Z,4.53
2023-05-14T15:47:38.863Z,4.50
2023-05-14T15:50:05.919Z,4.43
2023-05-14T15:52:32.538Z,4.32
2023-05-14T15:54:59.544Z,4.15
2023-05-14T15:57:26.215Z,4.75
2023-05-14T15:59:52.785Z,4.25
2023-05-14T16:02:19.238Z,4.80
2023-05-14T16:04:45.684Z,4.25
2023-05-14T16:07:12.326Z,4.22
2023-05-14T16:09:39.317Z,4.32
2023-05-14T16:12:06.477Z,4.32
2023-05-14T16:14:34.225Z,4.85
2023-05-14T16:17:02.006Z,4.55
2023-05-14T16:19:28.520Z,4.43
2023-05-14T16:21:55.050Z,4.10
2023-05-14T16:24:21.598Z,4.55
2023-05-14T16:26:48.162Z,3.78
2023-05-14T16:29:14.570Z,3.90
2023-05-14T16:31:41.114Z,4.07
2023-05-14T16:34:07.559Z,3.90
2023-05-14T16:36:34.033Z,4.20
2023-05-14T16:41:29.957Z,4.60
2023-05-14T16:43:56.487Z,4.18
2023-05-14T16:46:23.036Z,4.15
2023-05-14T16:48:50.598Z,4.47
2023-05-14T16:51:17.024Z,3.85
2023-05-14T16:53:43.428Z,4.03
2023-05-14T16:56:09.877Z,3.72
2023-05-14T16:58:36.363Z,4.32
2023-05-14T17:01:02.911Z,4.00
2023-05-14T17:03:29.377Z,4.22
2023-05-14T17:05:55.840Z,3.97
2023-05-14T17:08:22.281Z,3.63
2023-05-14T17:10:48.685Z,4.18
2023-05-14T17:13:15.134Z,4.10
2023-05-14T17:15:42.431Z,4.30
2023-05-14T17:18:08.999Z,4.50
2023-05-14T17:20:35.511Z,4.18
2023-05-14T17:23:01.926Z,3.95
2023-05-14T17:25:28.323Z,4.47
2023-05-14T17:27:55.049Z,4.25
2023-05-14T17:30:21.479Z,4.35
2023-05-14T17:32:50.855Z,4.35
2023-05-14T17:35:17.528Z,4.18
2023-05-14T17:37:44.084Z,4.10
2023-05-14T17:40:11.074Z,4.03
2023-05-14T17:42:37.507Z,4.43
2023-05-14T17:45:04.282Z,4.80
2023-05-14T17:47:31.437Z,4.25
2023-05-14T17:49:58.208Z,4.50
2023-05-14T17:52:24.724Z,4.45
2023-05-14T17:54:51.272Z,3.97
2023-05-14T18:14:45.703Z,4.53
2023-05-14T18:17:12.376Z,4.65
2023-05-14T18:19:40.824Z,4.90
2023-05-14T18:22:07.275Z,4.70
2023-05-14T18:24:33.688Z,4.65
2023-05-14T18:27:00.496Z,3.83
2023-05-14T18:29:26.912Z,4.57
2023-05-14T18:31:53.342Z,4.53
2023-05-14T18:34:19.863Z,4.60
2023-05-14T18:36:46.354Z,4.78
2023-05-14T18:39:12.784Z,4.57
2023-05-14T18:41:39.230Z,4.45
2023-05-14T18:44:05.658Z,4.03
2023-05-14T18:46:32.189Z,4.57
2023-05-14T18:48:58.728Z,4.95
2023-05-14T18:51:25.342Z,4.93
2023-05-14T18:53:51.908Z,4.30
2023-05-14T18:56:18.338Z,4.40
2023-05-14T18:58:44.758Z,4.47
2023-05-14T19:01:11.226Z,4.43
2023-05-14T19:03:37.766Z,4.22
2023-05-14T19:06:04.381Z,4.20
2023-05-14T19:08:30.817Z,4.70
2023-05-14T19:10:57.291Z,4.85
2023-05-14T19:13:24.074Z,4.63
2023-05-14T19:15:50.694Z,4.40
2023-05-14T19:18:17.667Z,4.53
2023-05-14T19:20:46.176Z,5.05
2023-05-14T19:23:12.934Z,4.65
2023-05-14T19:25:39.476Z,4.43
2023-05-14T19:28:06.472Z,5.05
2023-05-14T19:30:32.947Z,4.78
2023-05-14T19:32:59.591Z,4.75
2023-05-14T19:35:26.652Z,5.07
2023-05-14T19:37:53.228Z,4.38
2023-05-14T19:40:19.693Z,4.95
2023-05-14T19:42:46.509Z,4.82
2023-05-14T19:45:13.680Z,4.75
2023-05-14T19:47:40.300Z,4.63
2023-05-14T19:50:08.626Z,4.80
2023-05-14T19:52:35.158Z,5.00
2023-05-14T19:55:01.603Z,4.80
2023-05-14T19:57:28.065Z,4.93
2023-05-14T19:59:54.522Z,4.47
2023-05-14T20:02:21.601Z,4.30
2023-05-14T20:04:48.088Z,5.20
2023-05-14T20:07:15.589Z,4.60
2023-05-14T20:09:42.121Z,4.65
2023-05-14T20:12:09.118Z,4.63
2023-05-14T20:14:35.869Z,4.72
2023-05-14T20:17:02.368Z,4.60
2023-05-14T20:19:28.814Z,4.65
2023-05-14T20:21:56.201Z,4.32
2023-05-14T20:24:22.658Z,4.20
2023-05-14T20:26:49.133Z,5.15
2023-05-14T20:29:15.605Z,4.68
2023-05-14T20:31:42.079Z,4.88
2023-05-14T20:34:08.504Z,4.40
2023-05-14T20:36:35.776Z,5.00
2023-05-14T20:39:02.250Z,4.50
2023-05-14T20:41:28.712Z,4.63
2023-05-14T20:43:55.107Z,5.20
2023-05-14T20:46:21.634Z,5.05
2023-05-14T20:48:48.625Z,4.50
2023-05-14T20:51:15.083Z,5.18
2023-05-14T20:53:41.888Z,4.68
2023-05-14T20:56:08.382Z,5.25
2023-05-14T20:58:35.369Z,4.47
2023-05-14T21:01:02.153Z,5.05
2023-05-14T21:03:28.669Z,4.80
2023-05-14T21:05:56.735Z,4.45
2023-05-14T21:08:23.225Z,5.25
2023-05-14T21:10:49.926Z,4.72
2023-05-14T21:13:16.375Z,4.47
2023-05-14T21:15:42.829Z,4.95
2023-05-14T21:18:09.400Z,4.50
2023-05-14T21:20:35.933Z,4.75
2023-05-14T21:23:02.416Z,4.90
2023-05-14T21:25:28.856Z,4.85
2023-05-14T21:27:55.350Z,4.60
2023-05-14T21:30:21.788Z,5.18
2023-05-14T21:32:48.275Z,5.25
2023-05-14T21:35:14.787Z,4.53
2023-05-14T21:37:41.299Z,5.40
2023-05-14T21:40:12.279Z,4.90
2023-05-14T21:42:39.642Z,4.85
2023-05-14T21:45:06.643Z,5.13
2023-05-14T21:47:33.410Z,5.38
2023-05-14T21:50:00.185Z,5.18
2023-05-14T21:52:26.926Z,5.30
2023-05-14T21:54:53.345Z,5.47
2023-05-14T21:57:20.091Z,4.57
2023-05-14T21:59:46.541Z,5.32
2023-05-14T22:02:12.957Z,5.07
2023-05-14T22:04:39.466Z,4.90
2023-05-14T22:07:05.942Z,5.00
2023-05-14T22:09:32.383Z,5.10
2023-05-14T22:11:59.092Z,5.10
2023-05-14T22:14:27.172Z,5.10
2023-05-14T22:16:53.689Z,5.35
2023-05-14T22:19:20.308Z,5.35
2023-05-14T22:21:46.792Z,5.40
2023-05-14T22:24:13.424Z,5.13
2023-05-14T22:26:40.262Z,5.63
2023-05-14T22:29:06.720Z,5.30
2023-05-14T22:31:33.166Z,5.15
2023-05-14T22:33:59.636Z,5.57
2023-05-14T22:36:26.117Z,4.97
2023-05-14T22:38:52.594Z,5.28
2023-05-14T22:41:20.128Z,5.50
2023-05-14T22:43:48.582Z,5.80
2023-05-14T22:46:15.866Z,5.43
2023-05-14T22:48:42.371Z,6.07
2023-05-14T22:51:08.819Z,5.03
2023-05-14T22:53:35.222Z,5.05
2023-05-14T22:56:01.932Z,5.03
2023-05-14T22:58:28.363Z,5.47
2023-05-14T23:00:54.785Z,5.10
2023-05-14T23:03:21.212Z,5.20
2023-05-14T23:05:47.623Z,5.20
2023-05-14T23:08:14.513Z,6.03
2023-05-14T23:10:40.967Z,5.40
2023-05-14T23:13:07.410Z,5.38
2023-05-14T23:15:33.830Z,5.40
2023-05-14T23:18:00.542Z,5.25
2023-05-14T23:20:27.056Z,5.28
2023-05-14T23:22:54.031Z,5.00
2023-05-14T23:25:20.526Z,4.60
2023-05-14T23:27:46.974Z,5.25
2023-05-14T23:30:13.553Z,5.32
2023-05-14T23:32:40.013Z,5.13
2023-05-14T23:35:06.658Z,5.63
2023-05-14T23:37:33.664Z,5.53
2023-05-14T23:40:01.649Z,5.93
2023-05-14T23:42:28.151Z,5.20
2023-05-14T23:44:54.582Z,5.50
2023-05-14T23:47:21.016Z,5.85
2023-05-14T23:49:47.458Z,5.80
2023-05-14T23:52:13.893Z,5.65
2023-05-14T23:54:40.394Z,5.85
2023-05-14T23:57:07.017Z,5.30
2023-05-14T23:59:33.515Z,5.75
